sensor_id;sensor_type;location;lat;lon;timestamp;P1;durP1;ratioP1;P2;durP2;ratioP2
5137;SDS011;53959;53.626;11.410;2022-09-09T00:02:10;60.33;;;34.40;;
5137;SDS011;53959;53.626;11.410;2022-09-09T00:04:45;52.37;;;32.27;;
5137;SDS011;53959;53.626;11.410;2022-09-09T00:07:34;53.97;;;33.40;;
5137;SDS011;53959;53.626;11.410;2022-09-09T00:15:43;55.40;;;32.37;;
5137;SDS011;53959;53.626;11.410;2022-09-09T00:21:13;64.10;;;34.00;;
5137;SDS011;53959;53.626;11.410;2022-09-09T00:23:52;63.00;;;34.30;;
5137;SDS011;53959;53.626;11.410;2022-09-09T00:28:58;87.67;;;36.07;;
5137;SDS011;53959;53.626;11.410;2022-09-09T00:31:34;66.20;;;34.97;;
5137;SDS011;53959;53.626;11.410;2022-09-09T00:34:13;79.63;;;36.90;;
5137;SDS011;53959;53.626;11.410;2022-09-09T00:36:42;61.60;;;34.03;;
5137;SDS011;53959;53.626;11.410;2022-09-09T00:39:53;59.97;;;35.67;;
5137;SDS011;53959;53.626;11.410;2022-09-09T00:44:38;65.07;;;33.63;;
5137;SDS011;53959;53.626;11.410;2022-09-09T00:47:18;64.97;;;35.90;;
5137;SDS011;53959;53.626;11.410;2022-09-09T00:50:05;72.27;;;36.30;;
5137;SDS011;53959;53.626;11.410;2022-09-09T00:57:52;81.77;;;36.37;;
5137;SDS011;53959;53.626;11.410;2022-09-09T01:07:57;108.87;;;37.77;;
5137;SDS011;53959;53.626;11.410;2022-09-09T01:13:30;89.53;;;37.30;;
5137;SDS011;53959;53.626;11.410;2022-09-09T01:15:59;75.90;;;33.70;;
5137;SDS011;53959;53.626;11.410;2022-09-09T01:18:34;66.13;;;34.50;;
5137;SDS011;53959;53.626;11.410;2022-09-09T01:26:56;84.17;;;32.60;;
5137;SDS011;53959;53.626;11.410;2022-09-09T01:29:26;69.53;;;30.13;;
5137;SDS011;53959;53.626;11.410;2022-09-09T01:32:02;101.23;;;30.23;;
5137;SDS011;53959;53.626;11.410;2022-09-09T01:34:48;100.37;;;31.10;;
5137;SDS011;53959;53.626;11.410;2022-09-09T01:37:14;79.07;;;30.93;;
5137;SDS011;53959;53.626;11.410;2022-09-09T01:39:41;72.87;;;29.53;;
5137;SDS011;53959;53.626;11.410;2022-09-09T01:42:09;70.63;;;31.37;;
5137;SDS011;53959;53.626;11.410;2022-09-09T01:44:39;67.00;;;31.13;;
5137;SDS011;53959;53.626;11.410;2022-09-09T01:47:05;93.03;;;31.50;;
5137;SDS011;53959;53.626;11.410;2022-09-09T01:49:31;105.47;;;32.07;;
5137;SDS011;53959;53.626;11.410;2022-09-09T01:52:00;93.33;;;33.60;;
5137;SDS011;53959;53.626;11.410;2022-09-09T01:54:26;78.40;;;33.50;;
5137;SDS011;53959;53.626;11.410;2022-09-09T02:05:22;151.13;;;33.17;;
5137;SDS011;53959;53.626;11.410;2022-09-09T02:10:43;106.50;;;33.57;;
5137;SDS011;53959;53.626;11.410;2022-09-09T02:13:14;77.27;;;31.70;;
5137;SDS011;53959;53.626;11.410;2022-09-09T02:15:57;90.27;;;34.67;;
5137;SDS011;53959;53.626;11.410;2022-09-09T02:18:35;89.90;;;32.53;;
5137;SDS011;53959;53.626;11.410;2022-09-09T02:21:07;108.13;;;32.77;;
5137;SDS011;53959;53.626;11.410;2022-09-09T02:23:36;125.23;;;31.10;;
5137;SDS011;53959;53.626;11.410;2022-09-09T02:26:04;143.57;;;32.00;;
5137;SDS011;53959;53.626;11.410;2022-09-09T02:28:32;133.93;;;29.63;;
5137;SDS011;53959;53.626;11.410;2022-09-09T02:31:01;104.93;;;31.27;;
5137;SDS011;53959;53.626;11.410;2022-09-09T02:33:28;112.13;;;30.60;;
5137;SDS011;53959;53.626;11.410;2022-09-09T02:35:59;94.80;;;28.27;;
5137;SDS011;53959;53.626;11.410;2022-09-09T02:38:28;82.10;;;26.83;;
5137;SDS011;53959;53.626;11.410;2022-09-09T02:40:59;80.67;;;26.30;;
5137;SDS011;53959;53.626;11.410;2022-09-09T02:43:30;86.60;;;25.57;;
5137;SDS011;53959;53.626;11.410;2022-09-09T02:46:07;112.17;;;25.30;;
5137;SDS011;53959;53.626;11.410;2022-09-09T02:49:00;86.77;;;26.00;;
5137;SDS011;53959;53.626;11.410;2022-09-09T02:54:18;82.30;;;24.63;;
5137;SDS011;53959;53.626;11.410;2022-09-09T02:56:54;93.47;;;26.83;;
5137;SDS011;53959;53.626;11.410;2022-09-09T02:59:20;102.33;;;26.70;;
5137;SDS011;53959;53.626;11.410;2022-09-09T03:01:47;61.20;;;24.60;;
5137;SDS011;53959;53.626;11.410;2022-09-09T03:04:13;71.47;;;24.73;;
5137;SDS011;53959;53.626;11.410;2022-09-09T03:06:38;71.80;;;23.20;;
5137;SDS011;53959;53.626;11.410;2022-09-09T03:09:04;80.60;;;25.43;;
5137;SDS011;53959;53.626;11.410;2022-09-09T03:11:30;84.73;;;21.47;;
5137;SDS011;53959;53.626;11.410;2022-09-09T03:13:55;92.27;;;22.70;;
5137;SDS011;53959;53.626;11.410;2022-09-09T03:16:24;79.57;;;21.67;;
5137;SDS011;53959;53.626;11.410;2022-09-09T03:18:49;71.23;;;21.40;;
5137;SDS011;53959;53.626;11.410;2022-09-09T03:21:15;60.20;;;20.47;;
5137;SDS011;53959;53.626;11.410;2022-09-09T03:23:41;77.70;;;21.33;;
5137;SDS011;53959;53.626;11.410;2022-09-09T03:26:07;69.67;;;20.17;;
5137;SDS011;53959;53.626;11.410;2022-09-09T03:28:33;77.63;;;22.23;;
5137;SDS011;53959;53.626;11.410;2022-09-09T03:31:02;61.33;;;20.60;;
5137;SDS011;53959;53.626;11.410;2022-09-09T03:33:30;62.80;;;22.43;;
5137;SDS011;53959;53.626;11.410;2022-09-09T03:35:56;64.10;;;23.80;;
5137;SDS011;53959;53.626;11.410;2022-09-09T03:38:22;60.30;;;23.70;;
5137;SDS011;53959;53.626;11.410;2022-09-09T03:40:52;61.80;;;22.87;;
5137;SDS011;53959;53.626;11.410;2022-09-09T03:43:20;61.20;;;24.37;;
5137;SDS011;53959;53.626;11.410;2022-09-09T03:45:49;54.07;;;23.27;;
5137;SDS011;53959;53.626;11.410;2022-09-09T03:48:16;52.03;;;23.33;;
5137;SDS011;53959;53.626;11.410;2022-09-09T03:50:49;59.57;;;24.03;;
5137;SDS011;53959;53.626;11.410;2022-09-09T03:53:16;66.20;;;25.80;;
5137;SDS011;53959;53.626;11.410;2022-09-09T03:55:47;60.97;;;25.30;;
5137;SDS011;53959;53.626;11.410;2022-09-09T03:58:15;61.80;;;24.93;;
5137;SDS011;53959;53.626;11.410;2022-09-09T04:00:43;59.20;;;25.60;;
5137;SDS011;53959;53.626;11.410;2022-09-09T04:03:09;62.83;;;25.57;;
5137;SDS011;53959;53.626;11.410;2022-09-09T04:05:36;60.90;;;27.50;;
5137;SDS011;53959;53.626;11.410;2022-09-09T04:08:04;53.73;;;26.27;;
5137;SDS011;53959;53.626;11.410;2022-09-09T04:10:30;56.57;;;26.30;;
5137;SDS011;53959;53.626;11.410;2022-09-09T04:12:56;60.07;;;26.80;;
5137;SDS011;53959;53.626;11.410;2022-09-09T04:15:22;65.33;;;27.70;;
5137;SDS011;53959;53.626;11.410;2022-09-09T04:17:47;52.50;;;24.13;;
5137;SDS011;53959;53.626;11.410;2022-09-09T04:20:13;62.07;;;27.30;;
5137;SDS011;53959;53.626;11.410;2022-09-09T04:22:38;64.90;;;28.07;;
5137;SDS011;53959;53.626;11.410;2022-09-09T04:25:05;67.60;;;28.23;;
5137;SDS011;53959;53.626;11.410;2022-09-09T04:27:31;64.20;;;26.03;;
5137;SDS011;53959;53.626;11.410;2022-09-09T04:29:57;61.60;;;28.07;;
5137;SDS011;53959;53.626;11.410;2022-09-09T04:32:22;59.87;;;27.87;;
5137;SDS011;53959;53.626;11.410;2022-09-09T04:34:48;65.23;;;28.77;;
5137;SDS011;53959;53.626;11.410;2022-09-09T04:37:14;63.97;;;28.90;;
5137;SDS011;53959;53.626;11.410;2022-09-09T04:39:39;62.17;;;28.93;;
5137;SDS011;53959;53.626;11.410;2022-09-09T04:42:05;61.00;;;29.70;;
5137;SDS011;53959;53.626;11.410;2022-09-09T04:44:32;67.73;;;30.07;;
5137;SDS011;53959;53.626;11.410;2022-09-09T04:46:57;62.80;;;30.13;;
5137;SDS011;53959;53.626;11.410;2022-09-09T04:49:22;66.17;;;29.30;;
5137;SDS011;53959;53.626;11.410;2022-09-09T04:51:48;64.80;;;29.13;;
5137;SDS011;53959;53.626;11.410;2022-09-09T04:54:14;68.97;;;32.37;;
5137;SDS011;53959;53.626;11.410;2022-09-09T04:56:40;65.70;;;30.43;;
5137;SDS011;53959;53.626;11.410;2022-09-09T04:59:07;67.43;;;30.67;;
5137;SDS011;53959;53.626;11.410;2022-09-09T05:01:33;64.47;;;30.10;;
5137;SDS011;53959;53.626;11.410;2022-09-09T05:03:59;57.30;;;29.60;;
5137;SDS011;53959;53.626;11.410;2022-09-09T05:06:24;65.23;;;28.70;;
5137;SDS011;53959;53.626;11.410;2022-09-09T05:08:50;70.80;;;32.10;;
5137;SDS011;53959;53.626;11.410;2022-09-09T05:11:20;63.60;;;30.50;;
5137;SDS011;53959;53.626;11.410;2022-09-09T05:13:50;62.43;;;29.50;;
5137;SDS011;53959;53.626;11.410;2022-09-09T05:16:16;60.10;;;29.80;;
5137;SDS011;53959;53.626;11.410;2022-09-09T05:18:42;63.40;;;31.10;;
5137;SDS011;53959;53.626;11.410;2022-09-09T05:21:09;70.90;;;31.30;;
5137;SDS011;53959;53.626;11.410;2022-09-09T05:23:35;58.53;;;29.90;;
5137;SDS011;53959;53.626;11.410;2022-09-09T05:26:02;65.50;;;31.03;;
5137;SDS011;53959;53.626;11.410;2022-09-09T05:28:28;64.10;;;30.83;;
5137;SDS011;53959;53.626;11.410;2022-09-09T05:30:56;56.00;;;28.10;;
5137;SDS011;53959;53.626;11.410;2022-09-09T05:33:26;58.97;;;28.63;;
5137;SDS011;53959;53.626;11.410;2022-09-09T05:35:56;55.07;;;29.27;;
5137;SDS011;53959;53.626;11.410;2022-09-09T05:38:22;54.03;;;28.90;;
5137;SDS011;53959;53.626;11.410;2022-09-09T05:40:51;54.83;;;28.10;;
5137;SDS011;53959;53.626;11.410;2022-09-09T05:43:18;60.27;;;28.00;;
5137;SDS011;53959;53.626;11.410;2022-09-09T05:45:45;53.80;;;27.53;;
5137;SDS011;53959;53.626;11.410;2022-09-09T05:48:12;65.43;;;29.20;;
5137;SDS011;53959;53.626;11.410;2022-09-09T05:50:40;48.00;;;24.30;;
5137;SDS011;53959;53.626;11.410;2022-09-09T05:53:06;51.10;;;26.37;;
5137;SDS011;53959;53.626;11.410;2022-09-09T05:55:31;46.13;;;24.50;;
5137;SDS011;53959;53.626;11.410;2022-09-09T05:57:57;44.77;;;24.70;;
5137;SDS011;53959;53.626;11.410;2022-09-09T06:00:22;39.37;;;23.20;;
5137;SDS011;53959;53.626;11.410;2022-09-09T06:02:51;44.33;;;23.33;;
5137;SDS011;53959;53.626;11.410;2022-09-09T06:05:17;40.93;;;22.73;;
5137;SDS011;53959;53.626;11.410;2022-09-09T06:07:43;36.33;;;21.43;;
5137;SDS011;53959;53.626;11.410;2022-09-09T06:10:09;32.90;;;20.00;;
5137;SDS011;53959;53.626;11.410;2022-09-09T06:12:38;43.90;;;23.93;;
5137;SDS011;53959;53.626;11.410;2022-09-09T06:15:05;37.20;;;21.33;;
5137;SDS011;53959;53.626;11.410;2022-09-09T06:17:32;35.83;;;20.67;;
5137;SDS011;53959;53.626;11.410;2022-09-09T06:19:57;46.60;;;19.23;;
5137;SDS011;53959;53.626;11.410;2022-09-09T06:22:23;35.20;;;21.77;;
5137;SDS011;53959;53.626;11.410;2022-09-09T06:24:48;32.93;;;19.20;;
5137;SDS011;53959;53.626;11.410;2022-09-09T06:27:14;33.90;;;19.70;;
5137;SDS011;53959;53.626;11.410;2022-09-09T06:29:39;33.77;;;19.80;;
5137;SDS011;53959;53.626;11.410;2022-09-09T06:32:05;23.60;;;17.37;;
5137;SDS011;53959;53.626;11.410;2022-09-09T06:34:33;28.90;;;16.93;;
5137;SDS011;53959;53.626;11.410;2022-09-09T06:36:59;26.63;;;17.70;;
5137;SDS011;53959;53.626;11.410;2022-09-09T06:39:25;27.27;;;17.30;;
5137;SDS011;53959;53.626;11.410;2022-09-09T06:41:50;24.97;;;16.87;;
5137;SDS011;53959;53.626;11.410;2022-09-09T06:44:18;22.50;;;15.60;;
5137;SDS011;53959;53.626;11.410;2022-09-09T06:46:44;21.83;;;14.90;;
5137;SDS011;53959;53.626;11.410;2022-09-09T06:49:11;20.53;;;14.03;;
5137;SDS011;53959;53.626;11.410;2022-09-09T06:51:38;19.27;;;14.50;;
5137;SDS011;53959;53.626;11.410;2022-09-09T06:54:10;19.80;;;14.40;;
5137;SDS011;53959;53.626;11.410;2022-09-09T06:56:40;19.17;;;13.80;;
5137;SDS011;53959;53.626;11.410;2022-09-09T06:59:08;20.80;;;14.97;;
5137;SDS011;53959;53.626;11.410;2022-09-09T07:01:35;30.43;;;14.37;;
5137;SDS011;53959;53.626;11.410;2022-09-09T07:04:01;20.80;;;14.40;;
5137;SDS011;53959;53.626;11.410;2022-09-09T07:06:30;21.13;;;13.70;;
5137;SDS011;53959;53.626;11.410;2022-09-09T07:08:57;18.60;;;13.13;;
5137;SDS011;53959;53.626;11.410;2022-09-09T07:11:26;20.30;;;13.93;;
5137;SDS011;53959;53.626;11.410;2022-09-09T07:13:53;17.20;;;13.50;;
5137;SDS011;53959;53.626;11.410;2022-09-09T07:16:20;18.10;;;12.43;;
5137;SDS011;53959;53.626;11.410;2022-09-09T07:18:49;20.17;;;13.47;;
5137;SDS011;53959;53.626;11.410;2022-09-09T07:21:15;20.73;;;13.27;;
5137;SDS011;53959;53.626;11.410;2022-09-09T07:23:42;22.97;;;12.87;;
5137;SDS011;53959;53.626;11.410;2022-09-09T07:26:10;13.67;;;10.70;;
5137;SDS011;53959;53.626;11.410;2022-09-09T07:28:40;15.37;;;11.27;;
5137;SDS011;53959;53.626;11.410;2022-09-09T07:31:07;22.83;;;10.57;;
5137;SDS011;53959;53.626;11.410;2022-09-09T07:33:38;15.93;;;10.83;;
5137;SDS011;53959;53.626;11.410;2022-09-09T07:36:14;15.77;;;11.33;;
5137;SDS011;53959;53.626;11.410;2022-09-09T07:38:55;15.43;;;10.67;;
5137;SDS011;53959;53.626;11.410;2022-09-09T07:41:26;11.53;;;10.10;;
5137;SDS011;53959;53.626;11.410;2022-09-09T07:43:55;15.70;;;10.37;;
5137;SDS011;53959;53.626;11.410;2022-09-09T07:46:22;12.60;;;10.03;;
5137;SDS011;53959;53.626;11.410;2022-09-09T07:48:50;16.43;;;10.83;;
5137;SDS011;53959;53.626;11.410;2022-09-09T07:51:34;14.90;;;9.70;;
5137;SDS011;53959;53.626;11.410;2022-09-09T07:54:03;13.93;;;10.40;;
5137;SDS011;53959;53.626;11.410;2022-09-09T07:56:31;10.47;;;8.80;;
5137;SDS011;53959;53.626;11.410;2022-09-09T07:58:57;11.30;;;9.40;;
5137;SDS011;53959;53.626;11.410;2022-09-09T08:01:27;9.50;;;8.23;;
5137;SDS011;53959;53.626;11.410;2022-09-09T08:03:56;12.37;;;8.80;;
5137;SDS011;53959;53.626;11.410;2022-09-09T08:06:27;12.00;;;7.90;;
5137;SDS011;53959;53.626;11.410;2022-09-09T08:08:54;12.27;;;9.43;;
5137;SDS011;53959;53.626;11.410;2022-09-09T08:11:21;8.50;;;7.50;;
5137;SDS011;53959;53.626;11.410;2022-09-09T08:13:48;8.63;;;7.13;;
5137;SDS011;53959;53.626;11.410;2022-09-09T08:16:16;5.40;;;4.90;;
5137;SDS011;53959;53.626;11.410;2022-09-09T08:18:43;8.60;;;5.90;;
5137;SDS011;53959;53.626;11.410;2022-09-09T08:21:13;7.03;;;5.53;;
5137;SDS011;53959;53.626;11.410;2022-09-09T08:23:42;7.07;;;5.70;;
5137;SDS011;53959;53.626;11.410;2022-09-09T08:28:36;5.40;;;4.90;;
5137;SDS011;53959;53.626;11.410;2022-09-09T08:31:08;12.23;;;5.03;;
5137;SDS011;53959;53.626;11.410;2022-09-09T08:33:36;6.93;;;5.50;;
5137;SDS011;53959;53.626;11.410;2022-09-09T08:36:03;13.73;;;4.83;;
5137;SDS011;53959;53.626;11.410;2022-09-09T08:38:30;7.37;;;5.03;;
5137;SDS011;53959;53.626;11.410;2022-09-09T08:40:58;6.33;;;4.90;;
5137;SDS011;53959;53.626;11.410;2022-09-09T08:43:35;5.33;;;4.67;;
5137;SDS011;53959;53.626;11.410;2022-09-09T08:46:11;15.40;;;4.50;;
5137;SDS011;53959;53.626;11.410;2022-09-09T08:49:01;4.47;;;4.13;;
5137;SDS011;53959;53.626;11.410;2022-09-09T08:51:38;6.23;;;4.40;;
5137;SDS011;53959;53.626;11.410;2022-09-09T08:54:04;8.10;;;5.27;;
5137;SDS011;53959;53.626;11.410;2022-09-09T08:56:31;11.03;;;4.90;;
5137;SDS011;53959;53.626;11.410;2022-09-09T08:58:57;9.80;;;4.47;;
5137;SDS011;53959;53.626;11.410;2022-09-09T09:04:20;14.57;;;4.50;;
5137;SDS011;53959;53.626;11.410;2022-09-09T09:07:14;7.03;;;4.77;;
5137;SDS011;53959;53.626;11.410;2022-09-09T09:10:00;4.17;;;3.87;;
5137;SDS011;53959;53.626;11.410;2022-09-09T09:12:41;8.13;;;5.20;;
5137;SDS011;53959;53.626;11.410;2022-09-09T09:15:17;5.47;;;4.70;;
5137;SDS011;53959;53.626;11.410;2022-09-09T09:17:45;9.23;;;4.90;;
5137;SDS011;53959;53.626;11.410;2022-09-09T09:20:12;6.17;;;4.27;;
5137;SDS011;53959;53.626;11.410;2022-09-09T09:22:50;4.07;;;3.77;;
5137;SDS011;53959;53.626;11.410;2022-09-09T09:25:21;9.20;;;4.23;;
5137;SDS011;53959;53.626;11.410;2022-09-09T09:28:08;5.27;;;4.13;;
5137;SDS011;53959;53.626;11.410;2022-09-09T09:30:44;6.07;;;4.80;;
5137;SDS011;53959;53.626;11.410;2022-09-09T09:33:27;5.50;;;4.23;;
5137;SDS011;53959;53.626;11.410;2022-09-09T09:35:55;6.13;;;3.93;;
5137;SDS011;53959;53.626;11.410;2022-09-09T09:38:22;7.70;;;3.77;;
5137;SDS011;53959;53.626;11.410;2022-09-09T09:40:53;13.97;;;5.67;;
5137;SDS011;53959;53.626;11.410;2022-09-09T09:45:54;5.70;;;3.17;;
5137;SDS011;53959;53.626;11.410;2022-09-09T09:48:20;35.77;;;8.30;;
5137;SDS011;53959;53.626;11.410;2022-09-09T09:50:49;5.27;;;3.30;;
5137;SDS011;53959;53.626;11.410;2022-09-09T09:53:26;7.30;;;3.70;;
5137;SDS011;53959;53.626;11.410;2022-09-09T09:58:20;5.70;;;3.30;;
5137;SDS011;53959;53.626;11.410;2022-09-09T10:00:49;5.87;;;2.93;;
5137;SDS011;53959;53.626;11.410;2022-09-09T10:03:21;5.87;;;2.10;;
5137;SDS011;53959;53.626;11.410;2022-09-09T10:05:52;3.77;;;1.93;;
5137;SDS011;53959;53.626;11.410;2022-09-09T10:08:18;15.40;;;2.63;;
5137;SDS011;53959;53.626;11.410;2022-09-09T10:10:50;2.93;;;2.00;;
5137;SDS011;53959;53.626;11.410;2022-09-09T10:19:02;2.23;;;2.10;;
5137;SDS011;53959;53.626;11.410;2022-09-09T10:29:48;4.03;;;1.47;;
5137;SDS011;53959;53.626;11.410;2022-09-09T10:38:05;1.77;;;1.37;;
5137;SDS011;53959;53.626;11.410;2022-09-09T10:46:26;3.90;;;2.10;;
5137;SDS011;53959;53.626;11.410;2022-09-09T10:57:44;1.80;;;1.70;;
5137;SDS011;53959;53.626;11.410;2022-09-09T11:00:15;3.80;;;1.60;;
5137;SDS011;53959;53.626;11.410;2022-09-09T11:02:43;1.17;;;1.07;;
5137;SDS011;53959;53.626;11.410;2022-09-09T11:07:39;5.23;;;1.67;;
5137;SDS011;53959;53.626;11.410;2022-09-09T11:10:34;2.20;;;1.30;;
5137;SDS011;53959;53.626;11.410;2022-09-09T11:13:20;2.57;;;1.50;;
5137;SDS011;53959;53.626;11.410;2022-09-09T11:16:02;3.03;;;1.30;;
5137;SDS011;53959;53.626;11.410;2022-09-09T11:18:46;2.30;;;1.10;;
5137;SDS011;53959;53.626;11.410;2022-09-09T11:21:16;1.73;;;1.17;;
5137;SDS011;53959;53.626;11.410;2022-09-09T11:23:58;1.27;;;0.87;;
5137;SDS011;53959;53.626;11.410;2022-09-09T11:26:30;1.20;;;0.90;;
5137;SDS011;53959;53.626;11.410;2022-09-09T11:29:08;1.90;;;1.30;;
5137;SDS011;53959;53.626;11.410;2022-09-09T11:37:38;2.10;;;1.10;;
5137;SDS011;53959;53.626;11.410;2022-09-09T11:40:23;1.27;;;1.03;;
5137;SDS011;53959;53.626;11.410;2022-09-09T11:45:39;1.93;;;1.23;;
5137;SDS011;53959;53.626;11.410;2022-09-09T11:48:23;2.73;;;0.83;;
5137;SDS011;53959;53.626;11.410;2022-09-09T11:50:57;1.27;;;0.80;;
5137;SDS011;53959;53.626;11.410;2022-09-09T11:53:32;1.00;;;1.00;;
5137;SDS011;53959;53.626;11.410;2022-09-09T11:56:03;1.03;;;0.93;;
5137;SDS011;53959;53.626;11.410;2022-09-09T11:58:41;0.90;;;0.90;;
5137;SDS011;53959;53.626;11.410;2022-09-09T12:01:29;2.47;;;0.93;;
5137;SDS011;53959;53.626;11.410;2022-09-09T12:06:51;2.80;;;1.30;;
5137;SDS011;53959;53.626;11.410;2022-09-09T12:10:03;2.23;;;1.20;;
5137;SDS011;53959;53.626;11.410;2022-09-09T12:12:48;1.77;;;0.97;;
5137;SDS011;53959;53.626;11.410;2022-09-09T12:15:17;4.23;;;0.83;;
5137;SDS011;53959;53.626;11.410;2022-09-09T12:17:53;1.80;;;1.43;;
5137;SDS011;53959;53.626;11.410;2022-09-09T12:20:21;2.77;;;1.40;;
5137;SDS011;53959;53.626;11.410;2022-09-09T12:28:15;2.93;;;1.17;;
5137;SDS011;53959;53.626;11.410;2022-09-09T12:33:18;2.83;;;1.07;;
5137;SDS011;53959;53.626;11.410;2022-09-09T12:35:45;7.20;;;1.23;;
5137;SDS011;53959;53.626;11.410;2022-09-09T12:38:19;1.87;;;1.40;;
5137;SDS011;53959;53.626;11.410;2022-09-09T12:40:57;3.37;;;1.40;;
5137;SDS011;53959;53.626;11.410;2022-09-09T12:43:25;6.93;;;0.97;;
5137;SDS011;53959;53.626;11.410;2022-09-09T12:45:53;2.43;;;1.30;;
5137;SDS011;53959;53.626;11.410;2022-09-09T12:48:28;2.77;;;0.97;;
5137;SDS011;53959;53.626;11.410;2022-09-09T12:51:01;1.67;;;0.93;;
5137;SDS011;53959;53.626;11.410;2022-09-09T12:53:37;1.50;;;1.20;;
5137;SDS011;53959;53.626;11.410;2022-09-09T12:56:05;1.03;;;0.90;;
5137;SDS011;53959;53.626;11.410;2022-09-09T12:58:33;1.33;;;1.13;;
5137;SDS011;53959;53.626;11.410;2022-09-09T13:01:00;2.83;;;1.07;;
5137;SDS011;53959;53.626;11.410;2022-09-09T13:03:30;5.00;;;0.93;;
5137;SDS011;53959;53.626;11.410;2022-09-09T13:06:10;1.33;;;1.00;;
5137;SDS011;53959;53.626;11.410;2022-09-09T13:08:39;1.23;;;0.90;;
5137;SDS011;53959;53.626;11.410;2022-09-09T13:11:48;2.60;;;1.13;;
5137;SDS011;53959;53.626;11.410;2022-09-09T13:14:00;1.77;;;1.20;;
5137;SDS011;53959;53.626;11.410;2022-09-09T13:16:30;1.80;;;1.03;;
5137;SDS011;53959;53.626;11.410;2022-09-09T13:19:16;4.23;;;1.60;;
5137;SDS011;53959;53.626;11.410;2022-09-09T13:21:42;2.30;;;1.57;;
5137;SDS011;53959;53.626;11.410;2022-09-09T13:27:00;2.83;;;1.30;;
5137;SDS011;53959;53.626;11.410;2022-09-09T13:29:52;1.90;;;1.10;;
5137;SDS011;53959;53.626;11.410;2022-09-09T13:32:22;1.93;;;1.33;;
5137;SDS011;53959;53.626;11.410;2022-09-09T13:34:55;3.87;;;1.00;;
5137;SDS011;53959;53.626;11.410;2022-09-09T13:37:24;3.20;;;1.40;;
5137;SDS011;53959;53.626;11.410;2022-09-09T13:39:59;2.20;;;1.07;;
5137;SDS011;53959;53.626;11.410;2022-09-09T13:42:25;4.60;;;1.40;;
5137;SDS011;53959;53.626;11.410;2022-09-09T13:44:53;3.63;;;1.13;;
5137;SDS011;53959;53.626;11.410;2022-09-09T13:47:21;4.33;;;1.37;;
5137;SDS011;53959;53.626;11.410;2022-09-09T13:49:53;3.53;;;1.80;;
5137;SDS011;53959;53.626;11.410;2022-09-09T13:52:19;6.80;;;2.10;;
5137;SDS011;53959;53.626;11.410;2022-09-09T13:54:47;3.90;;;2.20;;
5137;SDS011;53959;53.626;11.410;2022-09-09T13:57:15;9.20;;;1.90;;
5137;SDS011;53959;53.626;11.410;2022-09-09T13:59:46;5.30;;;2.03;;
5137;SDS011;53959;53.626;11.410;2022-09-09T14:02:13;4.30;;;2.30;;
5137;SDS011;53959;53.626;11.410;2022-09-09T14:04:39;4.70;;;2.60;;
5137;SDS011;53959;53.626;11.410;2022-09-09T14:07:07;2.70;;;2.50;;
5137;SDS011;53959;53.626;11.410;2022-09-09T14:09:38;6.33;;;2.47;;
5137;SDS011;53959;53.626;11.410;2022-09-09T14:12:04;2.90;;;2.50;;
5137;SDS011;53959;53.626;11.410;2022-09-09T14:14:30;4.13;;;3.53;;
5137;SDS011;53959;53.626;11.410;2022-09-09T14:16:55;3.23;;;2.60;;
5137;SDS011;53959;53.626;11.410;2022-09-09T14:19:21;6.80;;;3.10;;
5137;SDS011;53959;53.626;11.410;2022-09-09T14:21:46;8.77;;;2.17;;
5137;SDS011;53959;53.626;11.410;2022-09-09T14:24:12;9.10;;;3.13;;
5137;SDS011;53959;53.626;11.410;2022-09-09T14:26:37;2.10;;;1.30;;
5137;SDS011;53959;53.626;11.410;2022-09-09T14:29:03;1.57;;;1.47;;
5137;SDS011;53959;53.626;11.410;2022-09-09T14:31:28;8.10;;;1.80;;
5137;SDS011;53959;53.626;11.410;2022-09-09T14:33:54;2.83;;;2.30;;
5137;SDS011;53959;53.626;11.410;2022-09-09T14:36:20;1.57;;;1.30;;
5137;SDS011;53959;53.626;11.410;2022-09-09T14:38:45;2.40;;;1.30;;
5137;SDS011;53959;53.626;11.410;2022-09-09T14:41:12;3.47;;;1.70;;
5137;SDS011;53959;53.626;11.410;2022-09-09T14:43:41;3.23;;;1.77;;
5137;SDS011;53959;53.626;11.410;2022-09-09T14:46:08;2.20;;;1.27;;
5137;SDS011;53959;53.626;11.410;2022-09-09T14:48:42;6.10;;;1.60;;
5137;SDS011;53959;53.626;11.410;2022-09-09T14:51:10;3.30;;;1.47;;
5137;SDS011;53959;53.626;11.410;2022-09-09T14:53:38;4.03;;;1.63;;
5137;SDS011;53959;53.626;11.410;2022-09-09T14:56:08;2.90;;;1.60;;
5137;SDS011;53959;53.626;11.410;2022-09-09T14:58:41;2.77;;;1.77;;
5137;SDS011;53959;53.626;11.410;2022-09-09T15:01:11;5.50;;;2.57;;
5137;SDS011;53959;53.626;11.410;2022-09-09T15:03:39;6.80;;;2.17;;
5137;SDS011;53959;53.626;11.410;2022-09-09T15:06:12;4.50;;;2.50;;
5137;SDS011;53959;53.626;11.410;2022-09-09T15:08:39;5.07;;;2.47;;
5137;SDS011;53959;53.626;11.410;2022-09-09T15:11:06;6.20;;;2.70;;
5137;SDS011;53959;53.626;11.410;2022-09-09T15:13:32;5.20;;;2.70;;
5137;SDS011;53959;53.626;11.410;2022-09-09T15:16:13;3.80;;;2.17;;
5137;SDS011;53959;53.626;11.410;2022-09-09T15:18:43;9.90;;;2.97;;
5137;SDS011;53959;53.626;11.410;2022-09-09T15:21:14;3.50;;;2.53;;
5137;SDS011;53959;53.626;11.410;2022-09-09T15:23:41;3.97;;;2.60;;
5137;SDS011;53959;53.626;11.410;2022-09-09T15:26:07;8.80;;;2.47;;
5137;SDS011;53959;53.626;11.410;2022-09-09T15:28:34;5.73;;;2.40;;
5137;SDS011;53959;53.626;11.410;2022-09-09T15:31:05;8.13;;;2.60;;
5137;SDS011;53959;53.626;11.410;2022-09-09T15:33:32;2.67;;;2.47;;
5137;SDS011;53959;53.626;11.410;2022-09-09T15:35:59;3.33;;;2.60;;
5137;SDS011;53959;53.626;11.410;2022-09-09T15:38:24;4.47;;;2.40;;
5137;SDS011;53959;53.626;11.410;2022-09-09T15:40:53;3.67;;;2.60;;
5137;SDS011;53959;53.626;11.410;2022-09-09T15:43:20;7.77;;;4.13;;
5137;SDS011;53959;53.626;11.410;2022-09-09T15:45:46;5.27;;;2.87;;
5137;SDS011;53959;53.626;11.410;2022-09-09T15:48:19;8.73;;;3.57;;
5137;SDS011;53959;53.626;11.410;2022-09-09T15:50:47;9.83;;;3.30;;
5137;SDS011;53959;53.626;11.410;2022-09-09T15:53:27;15.67;;;3.40;;
5137;SDS011;53959;53.626;11.410;2022-09-09T15:55:54;9.50;;;3.30;;
5137;SDS011;53959;53.626;11.410;2022-09-09T15:58:20;10.60;;;3.60;;
5137;SDS011;53959;53.626;11.410;2022-09-09T16:00:46;6.50;;;4.10;;
5137;SDS011;53959;53.626;11.410;2022-09-09T16:03:11;11.17;;;3.73;;
5137;SDS011;53959;53.626;11.410;2022-09-09T16:05:37;14.20;;;4.10;;
5137;SDS011;53959;53.626;11.410;2022-09-09T16:08:03;5.10;;;3.27;;
5137;SDS011;53959;53.626;11.410;2022-09-09T16:10:29;7.57;;;3.80;;
5137;SDS011;53959;53.626;11.410;2022-09-09T16:12:55;14.33;;;4.27;;
5137;SDS011;53959;53.626;11.410;2022-09-09T16:15:21;8.53;;;4.37;;
5137;SDS011;53959;53.626;11.410;2022-09-09T16:17:48;6.57;;;3.00;;
5137;SDS011;53959;53.626;11.410;2022-09-09T16:20:13;15.57;;;3.07;;
5137;SDS011;53959;53.626;11.410;2022-09-09T16:22:39;6.27;;;2.57;;
5137;SDS011;53959;53.626;11.410;2022-09-09T16:25:05;5.30;;;2.90;;
5137;SDS011;53959;53.626;11.410;2022-09-09T16:27:31;9.20;;;2.87;;
5137;SDS011;53959;53.626;11.410;2022-09-09T16:29:56;9.47;;;2.57;;
5137;SDS011;53959;53.626;11.410;2022-09-09T16:32:22;8.00;;;2.90;;
5137;SDS011;53959;53.626;11.410;2022-09-09T16:34:47;6.23;;;2.50;;
5137;SDS011;53959;53.626;11.410;2022-09-09T16:37:13;11.60;;;3.40;;
5137;SDS011;53959;53.626;11.410;2022-09-09T16:39:38;7.93;;;2.83;;
5137;SDS011;53959;53.626;11.410;2022-09-09T16:42:04;11.13;;;2.90;;
5137;SDS011;53959;53.626;11.410;2022-09-09T16:44:30;8.43;;;3.20;;
5137;SDS011;53959;53.626;11.410;2022-09-09T16:46:55;9.87;;;2.43;;
5137;SDS011;53959;53.626;11.410;2022-09-09T16:49:21;11.30;;;2.87;;